sensor_id;sensor_type;location;lat;lon;timestamp;P1;durP1;ratioP1;P2;durP2;ratioP2
61915;SDS011;47868;51.326;6.550;2023-04-03T00:02:10;11.98;;;8.18;;
61915;SDS011;47868;51.326;6.550;2023-04-03T00:04:36;10.50;;;7.60;;
61915;SDS011;47868;51.326;6.550;2023-04-03T00:07:02;10.30;;;7.38;;
61915;SDS011;47868;51.326;6.550;2023-04-03T00:09:28;10.27;;;7.72;;
61915;SDS011;47868;51.326;6.550;2023-04-03T00:11:54;12.50;;;6.97;;
61915;SDS011;47868;51.326;6.550;2023-04-03T00:14:20;12.27;;;8.00;;
61915;SDS011;47868;51.326;6.550;2023-04-03T00:16:46;11.23;;;7.63;;
61915;SDS011;47868;51.326;6.550;2023-04-03T00:19:12;9.70;;;7.38;;
61915;SDS011;47868;51.326;6.550;2023-04-03T00:21:38;8.90;;;7.10;;
61915;SDS011;47868;51.326;6.550;2023-04-03T00:24:05;9.52;;;6.97;;
61915;SDS011;47868;51.326;6.550;2023-04-03T00:26:31;10.70;;;7.50;;
61915;SDS011;47868;51.326;6.550;2023-04-03T00:28:57;10.30;;;7.03;;
61915;SDS011;47868;51.326;6.550;2023-04-03T00:31:23;8.68;;;7.05;;
61915;SDS011;47868;51.326;6.550;2023-04-03T00:33:50;8.25;;;6.93;;
61915;SDS011;47868;51.326;6.550;2023-04-03T00:36:16;10.43;;;7.20;;
61915;SDS011;47868;51.326;6.550;2023-04-03T00:38:42;9.00;;;6.88;;
61915;SDS011;47868;51.326;6.550;2023-04-03T00:41:08;10.68;;;7.10;;
61915;SDS011;47868;51.326;6.550;2023-04-03T00:43:34;12.52;;;6.97;;
61915;SDS011;47868;51.326;6.550;2023-04-03T00:46:00;9.23;;;7.35;;
61915;SDS011;47868;51.326;6.550;2023-04-03T00:48:34;10.38;;;7.32;;
61915;SDS011;47868;51.326;6.550;2023-04-03T00:51:00;14.23;;;6.97;;
61915;SDS011;47868;51.326;6.550;2023-04-03T00:53:49;12.32;;;7.75;;
61915;SDS011;47868;51.326;6.550;2023-04-03T00:56:15;11.05;;;6.72;;
61915;SDS011;47868;51.326;6.550;2023-04-03T00:58:44;8.50;;;7.15;;
61915;SDS011;47868;51.326;6.550;2023-04-03T01:01:12;8.75;;;7.35;;
61915;SDS011;47868;51.326;6.550;2023-04-03T01:03:39;9.75;;;7.00;;
61915;SDS011;47868;51.326;6.550;2023-04-03T01:06:05;11.32;;;8.57;;
61915;SDS011;47868;51.326;6.550;2023-04-03T01:08:31;9.60;;;7.78;;
61915;SDS011;47868;51.326;6.550;2023-04-03T01:10:57;10.63;;;8.18;;
61915;SDS011;47868;51.326;6.550;2023-04-03T01:13:25;11.43;;;7.30;;
61915;SDS011;47868;51.326;6.550;2023-04-03T01:15:52;12.30;;;7.18;;
61915;SDS011;47868;51.326;6.550;2023-04-03T01:18:18;10.15;;;7.20;;
61915;SDS011;47868;51.326;6.550;2023-04-03T01:21:06;13.65;;;7.30;;
61915;SDS011;47868;51.326;6.550;2023-04-03T01:26:30;9.43;;;6.95;;
61915;SDS011;47868;51.326;6.550;2023-04-03T01:28:58;9.50;;;7.78;;
61915;SDS011;47868;51.326;6.550;2023-04-03T01:31:25;13.88;;;8.32;;
61915;SDS011;47868;51.326;6.550;2023-04-03T01:33:53;10.65;;;7.35;;
61915;SDS011;47868;51.326;6.550;2023-04-03T01:36:22;10.55;;;7.85;;
61915;SDS011;47868;51.326;6.550;2023-04-03T01:38:49;10.80;;;8.25;;
61915;SDS011;47868;51.326;6.550;2023-04-03T01:41:16;13.77;;;8.35;;
61915;SDS011;47868;51.326;6.550;2023-04-03T01:43:42;12.68;;;8.98;;
61915;SDS011;47868;51.326;6.550;2023-04-03T01:46:08;11.00;;;8.20;;
61915;SDS011;47868;51.326;6.550;2023-04-03T01:48:34;11.10;;;8.02;;
61915;SDS011;47868;51.326;6.550;2023-04-03T01:51:00;14.00;;;8.43;;
61915;SDS011;47868;51.326;6.550;2023-04-03T01:53:26;11.23;;;8.50;;
61915;SDS011;47868;51.326;6.550;2023-04-03T01:55:52;11.18;;;7.97;;
61915;SDS011;47868;51.326;6.550;2023-04-03T01:58:18;10.55;;;7.72;;
61915;SDS011;47868;51.326;6.550;2023-04-03T02:00:44;9.05;;;8.15;;
61915;SDS011;47868;51.326;6.550;2023-04-03T02:03:11;11.13;;;8.73;;
61915;SDS011;47868;51.326;6.550;2023-04-03T02:05:37;11.40;;;8.25;;
61915;SDS011;47868;51.326;6.550;2023-04-03T02:08:03;11.38;;;8.05;;
61915;SDS011;47868;51.326;6.550;2023-04-03T02:10:29;14.43;;;8.60;;
61915;SDS011;47868;51.326;6.550;2023-04-03T02:12:55;13.30;;;8.15;;
61915;SDS011;47868;51.326;6.550;2023-04-03T02:15:21;11.43;;;8.50;;
61915;SDS011;47868;51.326;6.550;2023-04-03T02:17:47;10.85;;;7.43;;
61915;SDS011;47868;51.326;6.550;2023-04-03T02:20:13;10.50;;;7.13;;
61915;SDS011;47868;51.326;6.550;2023-04-03T02:22:40;7.90;;;6.75;;
61915;SDS011;47868;51.326;6.550;2023-04-03T02:25:06;10.50;;;7.30;;
61915;SDS011;47868;51.326;6.550;2023-04-03T02:27:32;7.97;;;6.60;;
61915;SDS011;47868;51.326;6.550;2023-04-03T02:29:58;11.00;;;6.38;;
61915;SDS011;47868;51.326;6.550;2023-04-03T02:32:24;11.27;;;6.13;;
61915;SDS011;47868;51.326;6.550;2023-04-03T02:34:50;8.68;;;6.07;;
61915;SDS011;47868;51.326;6.550;2023-04-03T02:37:16;7.93;;;6.07;;
61915;SDS011;47868;51.326;6.550;2023-04-03T02:39:42;10.52;;;5.72;;
61915;SDS011;47868;51.326;6.550;2023-04-03T02:42:08;10.48;;;5.72;;
61915;SDS011;47868;51.326;6.550;2023-04-03T02:44:34;10.13;;;6.20;;
61915;SDS011;47868;51.326;6.550;2023-04-03T02:47:00;10.98;;;6.80;;
61915;SDS011;47868;51.326;6.550;2023-04-03T02:49:27;11.98;;;5.95;;
61915;SDS011;47868;51.326;6.550;2023-04-03T02:51:53;7.93;;;5.75;;
61915;SDS011;47868;51.326;6.550;2023-04-03T02:54:19;13.13;;;6.00;;
61915;SDS011;47868;51.326;6.550;2023-04-03T02:56:47;7.53;;;5.20;;
61915;SDS011;47868;51.326;6.550;2023-04-03T02:59:13;9.65;;;5.07;;
61915;SDS011;47868;51.326;6.550;2023-04-03T03:01:39;8.95;;;4.88;;
61915;SDS011;47868;51.326;6.550;2023-04-03T03:04:05;10.85;;;4.93;;
61915;SDS011;47868;51.326;6.550;2023-04-03T03:06:31;7.53;;;4.22;;
61915;SDS011;47868;51.326;6.550;2023-04-03T03:08:57;9.00;;;4.68;;
61915;SDS011;47868;51.326;6.550;2023-04-03T03:11:23;10.35;;;4.78;;
61915;SDS011;47868;51.326;6.550;2023-04-03T03:13:50;9.90;;;5.18;;
61915;SDS011;47868;51.326;6.550;2023-04-03T03:16:16;9.27;;;5.25;;
61915;SDS011;47868;51.326;6.550;2023-04-03T03:18:42;15.48;;;6.00;;
61915;SDS011;47868;51.326;6.550;2023-04-03T03:21:08;10.93;;;5.63;;
61915;SDS011;47868;51.326;6.550;2023-04-03T03:23:35;10.55;;;5.97;;
61915;SDS011;47868;51.326;6.550;2023-04-03T03:26:03;15.60;;;5.90;;
61915;SDS011;47868;51.326;6.550;2023-04-03T03:28:29;9.90;;;5.40;;
61915;SDS011;47868;51.326;6.550;2023-04-03T03:30:56;9.80;;;5.00;;
61915;SDS011;47868;51.326;6.550;2023-04-03T03:33:23;8.07;;;5.03;;
61915;SDS011;47868;51.326;6.550;2023-04-03T03:35:50;8.50;;;4.72;;
61915;SDS011;47868;51.326;6.550;2023-04-03T03:38:16;8.23;;;4.18;;
61915;SDS011;47868;51.326;6.550;2023-04-03T03:40:42;8.77;;;4.30;;
61915;SDS011;47868;51.326;6.550;2023-04-03T03:43:08;6.82;;;4.13;;
61915;SDS011;47868;51.326;6.550;2023-04-03T03:45:34;10.82;;;4.00;;
61915;SDS011;47868;51.326;6.550;2023-04-03T03:48:00;7.70;;;3.80;;
61915;SDS011;47868;51.326;6.550;2023-04-03T03:50:26;9.23;;;4.00;;
61915;SDS011;47868;51.326;6.550;2023-04-03T03:52:52;8.75;;;4.60;;
61915;SDS011;47868;51.326;6.550;2023-04-03T03:55:18;10.60;;;4.80;;
61915;SDS011;47868;51.326;6.550;2023-04-03T03:57:44;12.60;;;5.68;;
61915;SDS011;47868;51.326;6.550;2023-04-03T04:00:10;10.63;;;5.75;;
61915;SDS011;47868;51.326;6.550;2023-04-03T04:02:37;8.63;;;4.90;;
61915;SDS011;47868;51.326;6.550;2023-04-03T04:05:03;8.38;;;5.20;;
61915;SDS011;47868;51.326;6.550;2023-04-03T04:07:29;11.43;;;5.43;;
61915;SDS011;47868;51.326;6.550;2023-04-03T04:09:55;9.43;;;5.45;;
61915;SDS011;47868;51.326;6.550;2023-04-03T04:12:21;9.65;;;4.78;;
61915;SDS011;47868;51.326;6.550;2023-04-03T04:14:47;9.25;;;4.43;;
61915;SDS011;47868;51.326;6.550;2023-04-03T04:17:13;8.70;;;4.18;;
61915;SDS011;47868;51.326;6.550;2023-04-03T04:19:40;10.63;;;4.50;;
61915;SDS011;47868;51.326;6.550;2023-04-03T04:22:06;13.38;;;4.40;;
61915;SDS011;47868;51.326;6.550;2023-04-03T04:24:32;8.80;;;3.92;;
61915;SDS011;47868;51.326;6.550;2023-04-03T04:26:58;6.75;;;4.20;;
61915;SDS011;47868;51.326;6.550;2023-04-03T04:29:24;7.78;;;4.07;;
61915;SDS011;47868;51.326;6.550;2023-04-03T04:31:50;10.77;;;5.60;;
61915;SDS011;47868;51.326;6.550;2023-04-03T04:34:16;7.88;;;3.95;;
61915;SDS011;47868;51.326;6.550;2023-04-03T04:36:42;9.50;;;4.05;;
61915;SDS011;47868;51.326;6.550;2023-04-03T04:39:08;6.50;;;3.83;;
61915;SDS011;47868;51.326;6.550;2023-04-03T04:41:34;7.97;;;3.40;;
61915;SDS011;47868;51.326;6.550;2023-04-03T04:44:00;10.75;;;4.00;;
61915;SDS011;47868;51.326;6.550;2023-04-03T04:46:26;8.48;;;4.30;;
61915;SDS011;47868;51.326;6.550;2023-04-03T04:48:52;9.07;;;3.70;;
61915;SDS011;47868;51.326;6.550;2023-04-03T04:51:18;5.57;;;3.08;;
61915;SDS011;47868;51.326;6.550;2023-04-03T04:53:45;7.00;;;4.13;;
61915;SDS011;47868;51.326;6.550;2023-04-03T04:56:11;5.75;;;3.60;;
61915;SDS011;47868;51.326;6.550;2023-04-03T04:58:37;6.38;;;3.30;;
61915;SDS011;47868;51.326;6.550;2023-04-03T05:01:04;9.70;;;3.70;;
61915;SDS011;47868;51.326;6.550;2023-04-03T05:03:30;4.80;;;3.20;;
61915;SDS011;47868;51.326;6.550;2023-04-03T05:05:56;6.40;;;3.40;;
61915;SDS011;47868;51.326;6.550;2023-04-03T05:08:22;7.60;;;3.38;;
61915;SDS011;47868;51.326;6.550;2023-04-03T05:10:48;7.82;;;3.60;;
61915;SDS011;47868;51.326;6.550;2023-04-03T05:13:15;8.05;;;3.42;;
61915;SDS011;47868;51.326;6.550;2023-04-03T05:15:41;4.53;;;2.88;;
61915;SDS011;47868;51.326;6.550;2023-04-03T05:18:07;7.57;;;3.35;;
61915;SDS011;47868;51.326;6.550;2023-04-03T05:20:33;6.55;;;3.67;;
61915;SDS011;47868;51.326;6.550;2023-04-03T05:22:59;7.15;;;3.28;;
61915;SDS011;47868;51.326;6.550;2023-04-03T05:25:26;8.32;;;3.67;;
61915;SDS011;47868;51.326;6.550;2023-04-03T05:27:52;7.97;;;3.10;;
61915;SDS011;47868;51.326;6.550;2023-04-03T05:30:18;8.07;;;3.15;;
61915;SDS011;47868;51.326;6.550;2023-04-03T05:32:44;9.13;;;3.65;;
61915;SDS011;47868;51.326;6.550;2023-04-03T05:35:11;6.88;;;3.83;;
61915;SDS011;47868;51.326;6.550;2023-04-03T05:37:37;8.45;;;3.92;;
61915;SDS011;47868;51.326;6.550;2023-04-03T05:40:04;6.82;;;3.80;;
61915;SDS011;47868;51.326;6.550;2023-04-03T05:42:30;10.10;;;4.10;;
61915;SDS011;47868;51.326;6.550;2023-04-03T05:44:56;7.70;;;3.58;;
61915;SDS011;47868;51.326;6.550;2023-04-03T05:47:22;5.75;;;3.17;;
61915;SDS011;47868;51.326;6.550;2023-04-03T05:49:48;6.20;;;3.40;;
61915;SDS011;47868;51.326;6.550;2023-04-03T05:52:23;5.00;;;2.97;;
61915;SDS011;47868;51.326;6.550;2023-04-03T05:54:51;11.65;;;4.10;;
61915;SDS011;47868;51.326;6.550;2023-04-03T05:57:17;14.65;;;3.33;;
61915;SDS011;47868;51.326;6.550;2023-04-03T05:59:43;8.57;;;3.53;;
61915;SDS011;47868;51.326;6.550;2023-04-03T06:02:11;6.93;;;3.40;;
61915;SDS011;47868;51.326;6.550;2023-04-03T06:04:37;4.78;;;3.50;;
61915;SDS011;47868;51.326;6.550;2023-04-03T06:07:03;8.30;;;3.47;;
61915;SDS011;47868;51.326;6.550;2023-04-03T06:09:30;7.88;;;3.70;;
61915;SDS011;47868;51.326;6.550;2023-04-03T06:11:56;8.32;;;3.25;;
61915;SDS011;47868;51.326;6.550;2023-04-03T06:14:23;6.95;;;3.85;;
61915;SDS011;47868;51.326;6.550;2023-04-03T06:16:50;8.25;;;3.88;;
61915;SDS011;47868;51.326;6.550;2023-04-03T06:19:16;8.70;;;3.65;;
61915;SDS011;47868;51.326;6.550;2023-04-03T06:21:42;12.52;;;4.40;;
61915;SDS011;47868;51.326;6.550;2023-04-03T06:24:09;12.73;;;4.32;;
61915;SDS011;47868;51.326;6.550;2023-04-03T06:26:35;5.90;;;4.05;;
61915;SDS011;47868;51.326;6.550;2023-04-03T06:29:01;12.85;;;4.57;;
61915;SDS011;47868;51.326;6.550;2023-04-03T06:31:27;8.55;;;4.53;;
61915;SDS011;47868;51.326;6.550;2023-04-03T06:33:53;10.90;;;4.35;;
61915;SDS011;47868;51.326;6.550;2023-04-03T06:36:20;13.13;;;4.70;;
61915;SDS011;47868;51.326;6.550;2023-04-03T06:38:46;7.82;;;4.40;;
61915;SDS011;47868;51.326;6.550;2023-04-03T06:41:12;9.48;;;4.78;;
61915;SDS011;47868;51.326;6.550;2023-04-03T06:43:39;11.13;;;4.78;;
61915;SDS011;47868;51.326;6.550;2023-04-03T06:46:05;13.88;;;4.95;;
61915;SDS011;47868;51.326;6.550;2023-04-03T06:48:31;18.08;;;6.50;;
61915;SDS011;47868;51.326;6.550;2023-04-03T06:50:57;14.90;;;6.03;;
61915;SDS011;47868;51.326;6.550;2023-04-03T06:53:23;14.02;;;6.10;;
61915;SDS011;47868;51.326;6.550;2023-04-03T06:55:50;10.75;;;5.13;;
61915;SDS011;47868;51.326;6.550;2023-04-03T06:58:16;15.10;;;6.05;;
61915;SDS011;47868;51.326;6.550;2023-04-03T07:00:42;10.40;;;5.90;;
61915;SDS011;47868;51.326;6.550;2023-04-03T07:03:08;10.15;;;6.55;;
61915;SDS011;47868;51.326;6.550;2023-04-03T07:05:34;30.10;;;8.07;;
61915;SDS011;47868;51.326;6.550;2023-04-03T07:08:00;16.20;;;7.50;;
61915;SDS011;47868;51.326;6.550;2023-04-03T07:10:26;14.40;;;7.68;;
61915;SDS011;47868;51.326;6.550;2023-04-03T07:12:52;11.15;;;4.65;;
61915;SDS011;47868;51.326;6.550;2023-04-03T07:15:18;11.75;;;4.43;;
61915;SDS011;47868;51.326;6.550;2023-04-03T07:17:44;7.82;;;4.55;;
61915;SDS011;47868;51.326;6.550;2023-04-03T07:20:11;5.57;;;3.97;;
61915;SDS011;47868;51.326;6.550;2023-04-03T07:22:38;11.30;;;3.63;;
61915;SDS011;47868;51.326;6.550;2023-04-03T07:25:04;9.32;;;3.70;;
61915;SDS011;47868;51.326;6.550;2023-04-03T07:27:32;7.82;;;4.50;;
61915;SDS011;47868;51.326;6.550;2023-04-03T07:29:58;11.52;;;4.85;;
61915;SDS011;47868;51.326;6.550;2023-04-03T07:32:24;11.73;;;4.70;;
61915;SDS011;47868;51.326;6.550;2023-04-03T07:34:50;8.27;;;4.22;;
61915;SDS011;47868;51.326;6.550;2023-04-03T07:37:16;11.25;;;4.85;;
61915;SDS011;47868;51.326;6.550;2023-04-03T07:39:43;13.05;;;4.75;;
61915;SDS011;47868;51.326;6.550;2023-04-03T07:42:10;9.90;;;4.25;;
61915;SDS011;47868;51.326;6.550;2023-04-03T07:44:37;9.85;;;4.10;;
61915;SDS011;47868;51.326;6.550;2023-04-03T07:47:03;8.43;;;3.70;;
61915;SDS011;47868;51.326;6.550;2023-04-03T07:49:29;10.20;;;4.65;;
61915;SDS011;47868;51.326;6.550;2023-04-03T07:51:56;10.02;;;4.15;;
61915;SDS011;47868;51.326;6.550;2023-04-03T07:54:23;6.72;;;3.72;;
61915;SDS011;47868;51.326;6.550;2023-04-03T07:56:49;13.40;;;3.90;;
61915;SDS011;47868;51.326;6.550;2023-04-03T07:59:15;7.38;;;3.97;;
61915;SDS011;47868;51.326;6.550;2023-04-03T08:01:41;13.63;;;4.65;;
61915;SDS011;47868;51.326;6.550;2023-04-03T08:04:08;8.60;;;5.25;;
61915;SDS011;47868;51.326;6.550;2023-04-03T08:06:35;10.25;;;4.90;;
61915;SDS011;47868;51.326;6.550;2023-04-03T08:09:02;7.68;;;4.65;;
61915;SDS011;47868;51.326;6.550;2023-04-03T08:11:29;9.40;;;4.57;;
61915;SDS011;47868;51.326;6.550;2023-04-03T08:13:55;7.22;;;3.83;;
61915;SDS011;47868;51.326;6.550;2023-04-03T08:16:22;10.50;;;4.32;;
61915;SDS011;47868;51.326;6.550;2023-04-03T08:18:51;10.40;;;4.72;;
61915;SDS011;47868;51.326;6.550;2023-04-03T08:21:17;11.52;;;4.40;;
61915;SDS011;47868;51.326;6.550;2023-04-03T08:23:43;9.40;;;4.60;;
61915;SDS011;47868;51.326;6.550;2023-04-03T08:26:11;8.80;;;4.43;;
61915;SDS011;47868;51.326;6.550;2023-04-03T08:28:38;8.27;;;3.42;;
61915;SDS011;47868;51.326;6.550;2023-04-03T08:31:05;8.25;;;3.38;;
61915;SDS011;47868;51.326;6.550;2023-04-03T08:33:32;8.02;;;3.80;;
61915;SDS011;47868;51.326;6.550;2023-04-03T08:35:58;7.85;;;2.90;;
61915;SDS011;47868;51.326;6.550;2023-04-03T08:38:25;6.32;;;2.95;;
61915;SDS011;47868;51.326;6.550;2023-04-03T08:45:58;5.30;;;3.05;;
61915;SDS011;47868;51.326;6.550;2023-04-03T08:48:27;6.35;;;3.08;;
61915;SDS011;47868;51.326;6.550;2023-04-03T08:50:56;6.05;;;2.47;;
61915;SDS011;47868;51.326;6.550;2023-04-03T08:53:27;6.68;;;2.95;;
61915;SDS011;47868;51.326;6.550;2023-04-03T08:55:56;6.05;;;2.80;;
61915;SDS011;47868;51.326;6.550;2023-04-03T08:58:26;5.35;;;2.50;;
61915;SDS011;47868;51.326;6.550;2023-04-03T09:00:58;6.05;;;2.63;;
61915;SDS011;47868;51.326;6.550;2023-04-03T09:03:24;8.70;;;3.28;;
61915;SDS011;47868;51.326;6.550;2023-04-03T09:05:52;8.18;;;3.35;;
61915;SDS011;47868;51.326;6.550;2023-04-03T09:08:22;3.78;;;2.58;;
61915;SDS011;47868;51.326;6.550;2023-04-03T09:10:49;7.20;;;2.70;;
61915;SDS011;47868;51.326;6.550;2023-04-03T09:15:47;5.28;;;2.88;;
61915;SDS011;47868;51.326;6.550;2023-04-03T09:18:15;7.70;;;3.42;;
61915;SDS011;47868;51.326;6.550;2023-04-03T09:23:22;5.22;;;2.30;;
61915;SDS011;47868;51.326;6.550;2023-04-03T09:25:48;3.67;;;2.58;;
61915;SDS011;47868;51.326;6.550;2023-04-03T09:28:16;5.47;;;2.60;;
61915;SDS011;47868;51.326;6.550;2023-04-03T09:30:42;6.78;;;2.60;;
61915;SDS011;47868;51.326;6.550;2023-04-03T09:33:09;2.97;;;2.00;;
61915;SDS011;47868;51.326;6.550;2023-04-03T09:35:36;4.43;;;2.13;;
61915;SDS011;47868;51.326;6.550;2023-04-03T09:40:40;5.38;;;2.58;;
61915;SDS011;47868;51.326;6.550;2023-04-03T09:45:52;5.13;;;2.15;;
61915;SDS011;47868;51.326;6.550;2023-04-03T09:55:56;3.78;;;1.98;;
61915;SDS011;47868;51.326;6.550;2023-04-03T09:58:23;3.10;;;2.25;;
61915;SDS011;47868;51.326;6.550;2023-04-03T10:00:54;6.35;;;2.10;;
61915;SDS011;47868;51.326;6.550;2023-04-03T10:03:35;1.50;;;1.40;;
61915;SDS011;47868;51.326;6.550;2023-04-03T10:06:04;4.65;;;1.98;;
61915;SDS011;47868;51.326;6.550;2023-04-03T10:08:43;4.18;;;1.67;;
61915;SDS011;47868;51.326;6.550;2023-04-03T10:11:15;2.28;;;1.50;;
61915;SDS011;47868;51.326;6.550;2023-04-03T10:13:53;3.63;;;2.05;;
61915;SDS011;47868;51.326;6.550;2023-04-03T10:16:23;2.70;;;1.40;;
61915;SDS011;47868;51.326;6.550;2023-04-03T10:21:28;2.47;;;1.38;;
61915;SDS011;47868;51.326;6.550;2023-04-03T10:34:37;2.72;;;1.45;;
61915;SDS011;47868;51.326;6.550;2023-04-03T10:37:24;2.55;;;1.40;;
61915;SDS011;47868;51.326;6.550;2023-04-03T10:45:21;3.47;;;1.88;;
61915;SDS011;47868;51.326;6.550;2023-04-03T10:57:54;3.85;;;2.00;;
61915;SDS011;47868;51.326;6.550;2023-04-03T11:00:25;6.63;;;2.05;;
61915;SDS011;47868;51.326;6.550;2023-04-03T11:02:59;3.72;;;1.80;;
61915;SDS011;47868;51.326;6.550;2023-04-03T11:07:52;2.40;;;1.52;;
61915;SDS011;47868;51.326;6.550;2023-04-03T11:13:22;1.92;;;1.50;;
61915;SDS011;47868;51.326;6.550;2023-04-03T11:15:50;2.95;;;1.80;;
61915;SDS011;47868;51.326;6.550;2023-04-03T11:18:19;4.70;;;1.95;;
61915;SDS011;47868;51.326;6.550;2023-04-03T11:21:21;3.50;;;1.90;;
61915;SDS011;47868;51.326;6.550;2023-04-03T11:23:39;4.40;;;2.20;;
61915;SDS011;47868;51.326;6.550;2023-04-03T11:26:10;3.47;;;1.88;;
61915;SDS011;47868;51.326;6.550;2023-04-03T11:28:37;2.97;;;1.75;;
61915;SDS011;47868;51.326;6.550;2023-04-03T11:33:42;3.88;;;1.90;;
61915;SDS011;47868;51.326;6.550;2023-04-03T11:36:18;2.70;;;1.40;;
61915;SDS011;47868;51.326;6.550;2023-04-03T11:38:44;2.47;;;1.50;;
61915;SDS011;47868;51.326;6.550;2023-04-03T11:41:11;3.10;;;1.83;;
61915;SDS011;47868;51.326;6.550;2023-04-03T11:43:42;4.40;;;1.92;;
61915;SDS011;47868;51.326;6.550;2023-04-03T11:46:21;2.65;;;1.70;;
61915;SDS011;47868;51.326;6.550;2023-04-03T11:48:49;3.53;;;1.75;;
61915;SDS011;47868;51.326;6.550;2023-04-03T11:53:41;4.05;;;1.63;;
61915;SDS011;47868;51.326;6.550;2023-04-03T11:56:40;3.60;;;1.75;;
61915;SDS011;47868;51.326;6.550;2023-04-03T12:04:10;5.30;;;1.85;;
61915;SDS011;47868;51.326;6.550;2023-04-03T12:09:22;4.13;;;1.65;;
61915;SDS011;47868;51.326;6.550;2023-04-03T12:11:48;2.78;;;1.90;;
61915;SDS011;47868;51.326;6.550;2023-04-03T12:14:15;8.90;;;1.90;;
61915;SDS011;47868;51.326;6.550;2023-04-03T12:16:43;5.30;;;1.77;;
61915;SDS011;47868;51.326;6.550;2023-04-03T12:29:14;2.72;;;1.90;;
61915;SDS011;47868;51.326;6.550;2023-04-03T12:31:46;3.78;;;1.70;;
61915;SDS011;47868;51.326;6.550;2023-04-03T12:34:26;3.90;;;2.17;;
61915;SDS011;47868;51.326;6.550;2023-04-03T12:37:14;4.00;;;2.17;;
61915;SDS011;47868;51.326;6.550;2023-04-03T12:47:29;3.00;;;1.70;;
61915;SDS011;47868;51.326;6.550;2023-04-03T12:49:58;1.98;;;1.50;;
61915;SDS011;47868;51.326;6.550;2023-04-03T12:52:42;4.10;;;2.00;;
61915;SDS011;47868;51.326;6.550;2023-04-03T12:55:16;1.88;;;1.40;;
61915;SDS011;47868;51.326;6.550;2023-04-03T12:57:43;3.38;;;1.35;;
61915;SDS011;47868;51.326;6.550;2023-04-03T13:02:48;5.10;;;1.58;;
61915;SDS011;47868;51.326;6.550;2023-04-03T13:05:16;4.70;;;2.22;;
61915;SDS011;47868;51.326;6.550;2023-04-03T13:07:43;2.08;;;1.65;;
61915;SDS011;47868;51.326;6.550;2023-04-03T13:12:45;3.03;;;1.85;;
61915;SDS011;47868;51.326;6.550;2023-04-03T13:15:13;3.17;;;1.73;;
61915;SDS011;47868;51.326;6.550;2023-04-03T13:17:41;2.08;;;1.50;;
61915;SDS011;47868;51.326;6.550;2023-04-03T13:20:21;3.63;;;2.53;;
61915;SDS011;47868;51.326;6.550;2023-04-03T13:22:49;2.55;;;1.48;;
61915;SDS011;47868;51.326;6.550;2023-04-03T13:25:18;3.28;;;1.67;;
61915;SDS011;47868;51.326;6.550;2023-04-03T13:27:45;2.45;;;1.50;;
61915;SDS011;47868;51.326;6.550;2023-04-03T13:30:23;2.65;;;1.83;;
61915;SDS011;47868;51.326;6.550;2023-04-03T13:32:50;2.78;;;1.65;;
61915;SDS011;47868;51.326;6.550;2023-04-03T13:35:30;5.35;;;1.67;;
61915;SDS011;47868;51.326;6.550;2023-04-03T13:37:58;5.78;;;1.90;;
61915;SDS011;47868;51.326;6.550;2023-04-03T13:40:24;3.75;;;1.80;;
61915;SDS011;47868;51.326;6.550;2023-04-03T13:43:04;3.92;;;1.90;;
61915;SDS011;47868;51.326;6.550;2023-04-03T13:45:31;2.35;;;1.55;;
61915;SDS011;47868;51.326;6.550;2023-04-03T13:50:54;1.63;;;1.27;;
61915;SDS011;47868;51.326;6.550;2023-04-03T13:53:21;2.13;;;1.50;;
61915;SDS011;47868;51.326;6.550;2023-04-03T13:58:22;2.72;;;1.80;;
61915;SDS011;47868;51.326;6.550;2023-04-03T14:05:46;4.13;;;1.83;;
61915;SDS011;47868;51.326;6.550;2023-04-03T14:08:12;3.78;;;1.80;;
61915;SDS011;47868;51.326;6.550;2023-04-03T14:10:38;2.42;;;1.60;;
61915;SDS011;47868;51.326;6.550;2023-04-03T14:13:05;2.72;;;1.80;;
61915;SDS011;47868;51.326;6.550;2023-04-03T14:15:31;5.22;;;1.75;;
61915;SDS011;47868;51.326;6.550;2023-04-03T14:17:57;4.65;;;1.58;;
61915;SDS011;47868;51.326;6.550;2023-04-03T14:20:24;3.60;;;1.50;;
61915;SDS011;47868;51.326;6.550;2023-04-03T14:22:51;3.95;;;1.80;;
61915;SDS011;47868;51.326;6.550;2023-04-03T14:25:19;3.00;;;1.75;;
61915;SDS011;47868;51.326;6.550;2023-04-03T14:27:46;3.45;;;1.73;;
61915;SDS011;47868;51.326;6.550;2023-04-03T14:30:21;3.22;;;1.58;;
61915;SDS011;47868;51.326;6.550;2023-04-03T14:32:47;3.28;;;1.48;;
61915;SDS011;47868;51.326;6.550;2023-04-03T14:35:13;3.13;;;1.52;;
61915;SDS011;47868;51.326;6.550;2023-04-03T14:37:39;3.08;;;1.50;;
61915;SDS011;47868;51.326;6.550;2023-04-03T14:40:06;3.10;;;1.60;;
61915;SDS011;47868;51.326;6.550;2023-04-03T14:42:34;2.90;;;1.50;;
61915;SDS011;47868;51.326;6.550;2023-04-03T14:45:02;2.97;;;1.88;;
61915;SDS011;47868;51.326;6.550;2023-04-03T14:47:29;2.47;;;1.75;;
61915;SDS011;47868;51.326;6.550;2023-04-03T14:49:55;2.55;;;1.80;;
61915;SDS011;47868;51.326;6.550;2023-04-03T14:52:26;2.40;;;1.70;;
61915;SDS011;47868;51.326;6.550;2023-04-03T14:54:52;2.72;;;1.50;;
61915;SDS011;47868;51.326;6.550;2023-04-03T14:57:18;2.45;;;1.70;;
61915;SDS011;47868;51.326;6.550;2023-04-03T14:59:45;2.15;;;1.60;;
61915;SDS011;47868;51.326;6.550;2023-04-03T15:04:52;3.28;;;1.60;;
61915;SDS011;47868;51.326;6.550;2023-04-03T15:07:18;5.78;;;1.58;;
61915;SDS011;47868;51.326;6.550;2023-04-03T15:09:45;2.70;;;1.52;;
61915;SDS011;47868;51.326;6.550;2023-04-03T15:12:11;1.70;;;1.45;;
61915;SDS011;47868;51.326;6.550;2023-04-03T15:14:37;3.38;;;1.55;;
61915;SDS011;47868;51.326;6.550;2023-04-03T15:17:06;2.90;;;1.38;;
61915;SDS011;47868;51.326;6.550;2023-04-03T15:19:38;3.03;;;1.80;;
61915;SDS011;47868;51.326;6.550;2023-04-03T15:22:04;6.15;;;2.08;;
61915;SDS011;47868;51.326;6.550;2023-04-03T15:24:30;5.50;;;1.67;;
61915;SDS011;47868;51.326;6.550;2023-04-03T15:26:56;4.97;;;1.90;;
61915;SDS011;47868;51.326;6.550;2023-04-03T15:29:22;3.17;;;1.23;;
61915;SDS011;47868;51.326;6.550;2023-04-03T15:31:48;3.45;;;1.60;;
61915;SDS011;47868;51.326;6.550;2023-04-03T15:34:17;8.02;;;1.70;;
61915;SDS011;47868;51.326;6.550;2023-04-03T15:36:43;3.45;;;1.80;;
61915;SDS011;47868;51.326;6.550;2023-04-03T15:39:09;2.03;;;1.30;;
61915;SDS011;47868;51.326;6.550;2023-04-03T15:41:35;2.53;;;1.33;;
61915;SDS011;47868;51.326;6.550;2023-04-03T15:44:01;3.45;;;1.73;;
61915;SDS011;47868;51.326;6.550;2023-04-03T15:46:27;2.38;;;1.80;;
61915;SDS011;47868;51.326;6.550;2023-04-03T15:48:53;3.50;;;2.10;;
61915;SDS011;47868;51.326;6.550;2023-04-03T15:51:19;3.58;;;1.58;;
61915;SDS011;47868;51.326;6.550;2023-04-03T15:53:45;4.88;;;2.03;;
61915;SDS011;47868;51.326;6.550;2023-04-03T15:56:11;2.90;;;1.50;;
61915;SDS011;47868;51.326;6.550;2023-04-03T15:58:37;3.58;;;1.90;;
61915;SDS011;47868;51.326;6.550;2023-04-03T16:01:03;2.53;;;2.08;;
61915;SDS011;47868;51.326;6.550;2023-04-03T16:03:31;2.55;;;1.73;;
61915;SDS011;47868;51.326;6.550;2023-04-03T16:05:57;2.55;;;2.00;;
61915;SDS011;47868;51.326;6.550;2023-04-03T16:08:23;3.95;;;2.13;;
61915;SDS011;47868;51.326;6.550;2023-04-03T16:10:49;2.15;;;1.30;;
61915;SDS011;47868;51.326;6.550;2023-04-03T16:13:15;5.10;;;1.50;;
61915;SDS011;47868;51.326;6.550;2023-04-03T16:15:42;4.45;;;1.80;;
61915;SDS011;47868;51.326;6.550;2023-04-03T16:18:08;2.03;;;1.50;;
61915;SDS011;47868;51.326;6.550;2023-04-03T16:20:35;2.55;;;1.60;;
61915;SDS011;47868;51.326;6.550;2023-04-03T16:23:01;4.35;;;1.67;;
61915;SDS011;47868;51.326;6.550;2023-04-03T16:25:27;3.67;;;1.80;;
61915;SDS011;47868;51.326;6.550;2023-04-03T16:27:53;2.33;;;1.70;;
61915;SDS011;47868;51.326;6.550;2023-04-03T16:30:19;4.15;;;1.70;;
61915;SDS011;47868;51.326;6.550;2023-04-03T16:32:45;4.80;;;1.67;;
61915;SDS011;47868;51.326;6.550;2023-04-03T16:35:11;3.55;;;2.30;;